This is the latest recevied weather packets stored in our database for station/object IK3ZGB. If no packets are shown the sender has not sent any weather packets the latest 10 day(s).
| Time | Temp. | Humidity | Pressure | Rain* | Wind** | Luminosity | Snow |
|---|---|---|---|---|---|---|---|
| 1777617525 | 20° C | 42% | 1029.6 hPa | - | - | - | - |
| 1777616924 | 20.56° C | 44% | 1029.2 hPa | - | - | - | - |
| 1777616324 | 20.56° C | 43% | 1029.5 hPa | - | - | - | - |
| 1777615726 | 19.44° C | 44% | 1029.3 hPa | - | - | - | - |
| 1777615125 | 23.89° C | 42% | 1029.3 hPa | - | - | - | - |
| 1777614524 | 25° C | 43% | 1029.3 hPa | - | - | - | - |
| 1777613925 | 23.33° C | 44% | 1029.4 hPa | - | - | - | - |
| 1777613325 | 22.22° C | 45% | 1029.7 hPa | - | - | - | - |
| 1777612724 | 17.22° C | 48% | 1030 hPa | - | - | - | - |
| 1777612126 | 14.44° C | 51% | 1030 hPa | - | - | - | - |
| 1777611524 | 13.89° C | 52% | 1029.9 hPa | - | - | - | - |
| 1777610924 | 13.33° C | 52% | 1029.7 hPa | - | - | - | - |
| 1777610324 | 12.78° C | 54% | 1029.7 hPa | - | - | - | - |
| 1777609724 | 11.67° C | 56% | 1029.7 hPa | - | - | - | - |
| 1777609125 | 11.11° C | 56% | 1029.6 hPa | - | - | - | - |
| 1777608524 | 11.11° C | 56% | 1029.6 hPa | - | - | - | - |
| 1777607925 | 11.11° C | 56% | 1029.5 hPa | - | - | - | - |
| 1777607326 | 11.11° C | 56% | 1029.4 hPa | - | - | - | - |
| 1777606724 | 11.11° C | 56% | 1029.4 hPa | - | - | - | - |
| 1777606124 | 11.11° C | 56% | 1029.5 hPa | - | - | - | - |
| 1777605524 | 11.67° C | 56% | 1029.5 hPa | - | - | - | - |
| 1777604926 | 11.67° C | 56% | 1029.6 hPa | - | - | - | - |
| 1777604324 | 11.67° C | 55% | 1029.7 hPa | - | - | - | - |
| 1777603724 | 11.67° C | 54% | 1029.7 hPa | - | - | - | - |
| 1777603126 | 12.22° C | 54% | 1029.6 hPa | - | - | - | - |
* Rain since midnight (hover to see other rain measurements)
** Current wind speed in m/s (hover to see current wind gust speed)